createdAt,value
2018-06-27T00:02:15.803Z,18.20
2018-06-27T00:04:45.399Z,16.13
2018-06-27T00:07:14.782Z,16.97
2018-06-27T00:09:44.094Z,16.83
2018-06-27T00:12:13.360Z,16.37
2018-06-27T00:14:42.648Z,16.03
2018-06-27T00:17:11.949Z,16.97
2018-06-27T00:19:41.254Z,16.53
2018-06-27T00:22:10.688Z,15.03
2018-06-27T00:24:40.123Z,16.33
2018-06-27T00:27:09.475Z,15.80
2018-06-27T00:29:38.783Z,16.87
2018-06-27T00:32:08.079Z,16.83
2018-06-27T00:34:37.367Z,19.60
2018-06-27T00:37:06.754Z,14.77
2018-06-27T00:39:36.031Z,15.20
2018-06-27T00:42:05.423Z,16.70
2018-06-27T00:44:34.768Z,17.97
2018-06-27T00:47:04.050Z,14.17
2018-06-27T00:49:33.437Z,16.20
2018-06-27T00:52:02.718Z,18.80
2018-06-27T00:54:32.766Z,18.03
2018-06-27T00:57:10.004Z,17.97
2018-06-27T00:59:39.513Z,17.07
2018-06-27T01:02:08.815Z,18.37
2018-06-27T01:04:38.609Z,19.03
2018-06-27T01:07:07.879Z,18.13
2018-06-27T01:09:37.755Z,19.57
2018-06-27T01:12:07.218Z,19.73
2018-06-27T01:14:36.442Z,16.93
2018-06-27T01:17:05.939Z,16.83
2018-06-27T01:19:35.241Z,18.17
2018-06-27T01:22:05.203Z,17.83
2018-06-27T01:24:35.024Z,16.77
2018-06-27T01:27:04.336Z,17.13
2018-06-27T01:29:33.604Z,18.17
2018-06-27T01:32:02.900Z,19.73
2018-06-27T01:34:32.837Z,17.40
2018-06-27T01:37:02.113Z,16.43
2018-06-27T01:39:31.367Z,18.10
2018-06-27T01:42:00.762Z,17.07
2018-06-27T01:44:30.066Z,19.70
2018-06-27T01:46:59.063Z,20.03
2018-06-27T01:49:28.234Z,19.13
2018-06-27T01:51:57.540Z,19.00
2018-06-27T01:54:27.047Z,19.13
2018-06-27T01:56:56.656Z,18.37
2018-06-27T01:59:25.918Z,18.63
2018-06-27T02:01:55.595Z,17.07
2018-06-27T02:04:24.839Z,18.90
2018-06-27T02:06:54.085Z,18.57
2018-06-27T02:09:23.377Z,19.87
2018-06-27T02:11:52.595Z,19.20
2018-06-27T02:14:21.891Z,18.83
2018-06-27T02:16:51.152Z,20.50
2018-06-27T02:19:20.389Z,18.03
2018-06-27T02:21:49.864Z,18.17
2018-06-27T02:24:19.117Z,21.73
2018-06-27T02:26:48.377Z,22.10
2018-06-27T02:29:17.688Z,17.47
2018-06-27T02:31:47.410Z,18.67
2018-06-27T02:34:16.884Z,18.37
2018-06-27T02:36:46.171Z,18.50
2018-06-27T02:39:15.472Z,18.17
2018-06-27T02:41:44.811Z,19.37
2018-06-27T02:44:14.092Z,17.00
2018-06-27T02:46:43.396Z,18.70
2018-06-27T02:49:12.626Z,16.33
2018-06-27T02:51:42.001Z,17.87
2018-06-27T02:54:11.321Z,16.63
2018-06-27T02:56:40.600Z,17.23
2018-06-27T02:59:09.850Z,17.20
2018-06-27T03:01:39.114Z,17.40
2018-06-27T03:04:08.468Z,17.07
2018-06-27T03:06:37.700Z,16.27
2018-06-27T03:09:08.709Z,17.33
2018-06-27T03:11:38.149Z,16.73
2018-06-27T03:14:07.404Z,18.47
2018-06-27T03:16:36.655Z,19.43
2018-06-27T03:19:06.076Z,21.70
2018-06-27T03:21:35.411Z,19.90
2018-06-27T03:24:04.757Z,22.10
2018-06-27T03:26:34.624Z,22.33
2018-06-27T03:29:03.961Z,20.20
2018-06-27T03:31:33.454Z,17.23
2018-06-27T03:34:02.790Z,16.47
2018-06-27T03:36:32.267Z,18.00
2018-06-27T03:39:01.515Z,19.23
2018-06-27T03:41:30.757Z,20.43
2018-06-27T03:44:00.237Z,18.43
2018-06-27T03:46:29.489Z,19.33
2018-06-27T03:48:58.752Z,19.40
2018-06-27T03:51:28.087Z,18.30
2018-06-27T03:53:57.421Z,20.97
2018-06-27T03:56:27.386Z,20.47
2018-06-27T03:58:57.291Z,21.10
2018-06-27T04:01:26.623Z,19.67
2018-06-27T04:03:56.414Z,21.13
2018-06-27T04:06:25.711Z,18.63
2018-06-27T04:08:55.728Z,18.57
2018-06-27T04:11:25.019Z,17.47
2018-06-27T04:13:54.304Z,17.50
2018-06-27T04:16:23.579Z,19.87
2018-06-27T04:18:52.867Z,19.10
2018-06-27T04:21:22.173Z,21.93
2018-06-27T04:23:52.071Z,18.90
2018-06-27T04:26:21.416Z,19.17
2018-06-27T04:28:50.715Z,20.17
2018-06-27T04:31:19.927Z,19.77
2018-06-27T04:33:49.203Z,20.10
2018-06-27T04:36:18.597Z,24.43
2018-06-27T04:38:47.904Z,20.33
2018-06-27T04:41:17.172Z,23.43
2018-06-27T04:43:46.496Z,24.53
2018-06-27T04:46:15.725Z,21.43
2018-06-27T04:48:45.044Z,23.17
2018-06-27T04:51:14.304Z,23.63
2018-06-27T04:53:43.606Z,23.17
2018-06-27T04:56:12.808Z,22.47
2018-06-27T04:58:42.099Z,23.03
2018-06-27T05:01:11.323Z,24.37
2018-06-27T05:03:40.589Z,27.23
2018-06-27T05:06:09.842Z,29.33
2018-06-27T05:08:39.133Z,27.30
2018-06-27T05:11:08.496Z,29.47
2018-06-27T05:13:37.873Z,26.37
2018-06-27T05:16:07.236Z,26.63
2018-06-27T05:18:36.491Z,28.10
2018-06-27T05:21:05.757Z,27.70
2018-06-27T05:23:35.123Z,25.80
2018-06-27T05:26:04.428Z,27.40
2018-06-27T05:28:33.711Z,25.73
2018-06-27T05:31:02.999Z,27.27
2018-06-27T05:33:32.203Z,25.67
2018-06-27T05:36:01.481Z,24.87
2018-06-27T05:38:30.747Z,24.00
2018-06-27T05:41:00.116Z,23.70
2018-06-27T05:43:29.591Z,24.97
2018-06-27T05:45:58.847Z,25.00
2018-06-27T05:48:30.766Z,25.57
2018-06-27T05:51:00.009Z,24.97
2018-06-27T05:53:30.038Z,32.60
2018-06-27T05:55:59.359Z,29.30
2018-06-27T05:58:28.639Z,29.10
2018-06-27T06:00:57.851Z,30.43
2018-06-27T06:03:27.145Z,28.43
2018-06-27T06:05:56.476Z,30.30
2018-06-27T06:08:25.672Z,31.37
2018-06-27T06:10:54.942Z,29.27
2018-06-27T06:13:24.176Z,28.97
2018-06-27T06:15:53.466Z,33.47
2018-06-27T06:18:22.739Z,28.17
2018-06-27T06:20:52.086Z,32.60
2018-06-27T06:23:21.360Z,28.77
2018-06-27T06:25:50.643Z,29.40
2018-06-27T06:28:20.009Z,27.50
2018-06-27T06:30:49.324Z,31.00
2018-06-27T06:33:18.576Z,28.20
2018-06-27T06:35:47.824Z,30.80
2018-06-27T06:38:17.093Z,27.63
2018-06-27T06:40:46.427Z,25.70
2018-06-27T06:43:15.751Z,27.53
2018-06-27T06:45:45.056Z,32.00
2018-06-27T06:48:14.294Z,27.57
2018-06-27T06:50:43.585Z,31.23
2018-06-27T06:53:13.579Z,28.73
2018-06-27T06:55:43.515Z,26.67
2018-06-27T06:58:13.240Z,30.80
2018-06-27T07:00:42.553Z,34.58
2018-06-27T07:03:12.000Z,28.03
2018-06-27T07:05:41.355Z,26.13
2018-06-27T07:08:11.352Z,26.07
2018-06-27T07:10:40.627Z,28.70
2018-06-27T07:13:09.884Z,29.43
2018-06-27T07:15:39.159Z,30.60
2018-06-27T07:18:08.455Z,28.97
2018-06-27T07:20:37.771Z,30.40
2018-06-27T07:23:07.185Z,24.60
2018-06-27T07:25:36.472Z,28.20
2018-06-27T07:28:05.731Z,24.18
2018-06-27T07:30:36.184Z,25.70
2018-06-27T07:33:05.492Z,23.12
2018-06-27T07:35:34.788Z,19.40
2018-06-27T07:38:04.136Z,25.52
2018-06-27T07:40:33.463Z,21.25
2018-06-27T07:43:03.474Z,28.27
2018-06-27T07:45:32.818Z,24.52
2018-06-27T07:48:02.179Z,24.32
2018-06-27T07:50:31.549Z,23.98
2018-06-27T07:53:01.532Z,20.82
2018-06-27T07:55:30.919Z,24.47
2018-06-27T07:58:00.188Z,24.70
2018-06-27T08:00:29.508Z,25.10
2018-06-27T08:02:59.413Z,22.40
2018-06-27T08:05:29.416Z,18.48
2018-06-27T08:07:58.696Z,25.20
2018-06-27T08:10:27.964Z,19.15
2018-06-27T08:12:57.283Z,25.35
2018-06-27T08:15:26.632Z,20.35
2018-06-27T08:17:56.772Z,23.92
2018-06-27T08:20:26.007Z,17.65
2018-06-27T08:22:55.352Z,23.75
2018-06-27T08:25:24.640Z,22.00
2018-06-27T08:27:54.028Z,23.80
2018-06-27T08:30:23.272Z,22.05
2018-06-27T08:32:52.868Z,20.15
2018-06-27T08:35:31.182Z,19.27
2018-06-27T08:38:00.609Z,19.73
2018-06-27T08:40:29.911Z,18.23
2018-06-27T08:42:59.208Z,21.52
2018-06-27T08:45:28.472Z,17.65
2018-06-27T08:47:58.372Z,19.55
2018-06-27T08:50:27.720Z,19.95
2018-06-27T08:52:57.027Z,18.42
2018-06-27T08:55:26.335Z,22.52
2018-06-27T08:57:55.663Z,16.65
2018-06-27T09:00:25.008Z,21.73
2018-06-27T09:02:54.443Z,17.12
2018-06-27T09:05:23.680Z,19.05
2018-06-27T09:07:52.973Z,14.85
2018-06-27T09:10:23.022Z,14.90
2018-06-27T09:12:52.364Z,19.12
2018-06-27T09:15:21.681Z,19.60
2018-06-27T09:17:51.572Z,16.93
2018-06-27T09:20:21.038Z,17.02
2018-06-27T09:22:50.734Z,15.95
2018-06-27T09:25:21.326Z,15.65
2018-06-27T09:27:51.294Z,18.60
2018-06-27T09:30:20.606Z,13.00
2018-06-27T09:32:50.901Z,13.68
2018-06-27T09:35:20.269Z,19.05
2018-06-27T09:37:49.762Z,17.02
2018-06-27T09:40:19.060Z,18.80
2018-06-27T09:42:48.353Z,19.55
2018-06-27T09:45:17.752Z,12.58
2018-06-27T09:47:47.049Z,11.53
2018-06-27T09:50:16.455Z,15.03
2018-06-27T09:52:46.515Z,16.57
2018-06-27T09:55:15.869Z,15.88
2018-06-27T09:57:45.179Z,12.68
2018-06-27T10:00:19.701Z,15.53
2018-06-27T10:02:49.035Z,9.28
2018-06-27T10:05:18.288Z,12.93
2018-06-27T10:07:47.633Z,10.90
2018-06-27T10:10:16.904Z,13.53
2018-06-27T10:12:46.341Z,10.13
2018-06-27T10:15:15.688Z,10.23
2018-06-27T10:17:45.025Z,14.00
2018-06-27T10:20:14.376Z,8.70
2018-06-27T10:22:43.851Z,11.57
2018-06-27T10:25:13.733Z,11.10
2018-06-27T10:27:43.721Z,11.88
2018-06-27T10:30:13.164Z,10.40
2018-06-27T10:32:42.581Z,8.85
2018-06-27T10:35:11.854Z,8.58
2018-06-27T10:37:41.096Z,9.73
2018-06-27T10:40:10.397Z,9.48
2018-06-27T10:42:39.647Z,14.23
2018-06-27T10:45:08.940Z,11.03
2018-06-27T10:47:38.283Z,9.70
2018-06-27T10:50:07.530Z,10.65
2018-06-27T10:52:36.768Z,11.53
2018-06-27T10:55:11.196Z,7.35
2018-06-27T10:57:40.488Z,7.85
2018-06-27T11:00:09.484Z,5.97
2018-06-27T11:02:39.231Z,6.80
2018-06-27T11:05:08.472Z,7.70
2018-06-27T11:07:37.929Z,7.78
2018-06-27T11:10:07.291Z,9.15
2018-06-27T11:12:36.598Z,9.43
2018-06-27T11:15:06.927Z,5.47
2018-06-27T11:17:36.336Z,5.78
2018-06-27T11:20:05.701Z,5.10
2018-06-27T11:22:41.432Z,4.42
2018-06-27T11:25:10.735Z,7.25
2018-06-27T11:27:40.184Z,7.00
2018-06-27T11:30:09.456Z,5.47
2018-06-27T11:32:38.728Z,4.62
2018-06-27T11:35:08.076Z,5.08
2018-06-27T11:37:37.359Z,7.92
2018-06-27T11:40:06.711Z,6.08
2018-06-27T11:42:36.039Z,5.40
2018-06-27T11:45:05.397Z,4.40
2018-06-27T11:47:34.714Z,11.18
2018-06-27T11:50:04.085Z,12.13
2018-06-27T11:52:33.376Z,5.65
2018-06-27T11:55:17.789Z,5.70
2018-06-27T11:57:46.885Z,3.85
2018-06-27T12:00:16.157Z,5.20
2018-06-27T12:02:45.486Z,6.50
2018-06-27T12:05:14.736Z,8.90
2018-06-27T12:07:44.012Z,5.78
2018-06-27T12:10:13.585Z,6.25
2018-06-27T12:12:42.769Z,7.12
2018-06-27T12:15:12.044Z,5.47
2018-06-27T12:17:41.291Z,5.65
2018-06-27T12:20:10.593Z,7.28
2018-06-27T12:22:40.504Z,5.78
2018-06-27T12:25:10.185Z,4.55
2018-06-27T12:27:39.520Z,3.50
2018-06-27T12:30:16.494Z,3.83
2018-06-27T12:32:45.804Z,6.08
2018-06-27T12:35:15.132Z,5.30
2018-06-27T12:37:44.428Z,3.90
2018-06-27T12:40:13.946Z,4.30
2018-06-27T12:42:43.238Z,5.55
2018-06-27T12:45:13.332Z,3.50
2018-06-27T12:47:43.313Z,4.50
2018-06-27T12:50:13.402Z,4.12
2018-06-27T12:52:42.696Z,5.55
2018-06-27T12:55:14.123Z,8.48
2018-06-27T12:57:43.400Z,3.67
2018-06-27T13:00:12.816Z,7.25
2018-06-27T13:02:42.449Z,4.83
2018-06-27T13:05:11.757Z,7.65
2018-06-27T13:07:41.732Z,2.67
2018-06-27T13:10:11.397Z,3.85
2018-06-27T13:12:41.079Z,7.53
2018-06-27T13:15:11.826Z,3.30
2018-06-27T13:17:41.121Z,4.05
2018-06-27T13:20:10.543Z,4.67
2018-06-27T13:22:39.887Z,3.65
2018-06-27T13:25:08.866Z,4.75
2018-06-27T13:27:38.555Z,2.70
2018-06-27T13:30:07.888Z,2.80
2018-06-27T13:32:37.203Z,5.62
2018-06-27T13:35:07.519Z,6.65
2018-06-27T13:37:36.911Z,4.75
2018-06-27T13:40:06.275Z,5.25
2018-06-27T13:42:35.567Z,4.47
2018-06-27T13:45:05.443Z,3.80
2018-06-27T13:47:35.523Z,5.45
2018-06-27T13:50:05.241Z,3.92
2018-06-27T13:52:34.443Z,5.10
2018-06-27T13:55:04.507Z,3.58
2018-06-27T13:57:34.669Z,6.20
2018-06-27T14:00:04.342Z,4.03
2018-06-27T14:02:33.571Z,4.37
2018-06-27T14:05:02.859Z,3.37
2018-06-27T14:07:32.096Z,4.90
2018-06-27T14:10:01.478Z,4.97
2018-06-27T14:12:30.816Z,4.58
2018-06-27T14:15:00.122Z,4.83
2018-06-27T14:17:29.383Z,5.10
2018-06-27T14:19:58.615Z,5.53
2018-06-27T14:22:27.958Z,4.10
2018-06-27T14:24:57.273Z,5.17
2018-06-27T14:27:26.560Z,7.33
2018-06-27T14:29:56.013Z,6.58
2018-06-27T14:32:25.459Z,4.95
2018-06-27T14:34:54.743Z,4.62
2018-06-27T14:37:24.039Z,5.03
2018-06-27T14:39:53.645Z,3.83
2018-06-27T14:42:23.198Z,3.85
2018-06-27T14:44:52.497Z,5.53
2018-06-27T14:47:21.760Z,5.37
2018-06-27T14:49:51.184Z,4.95
2018-06-27T14:52:20.522Z,6.45
2018-06-27T14:54:50.632Z,2.98
2018-06-27T14:57:20.613Z,4.72
2018-06-27T14:59:50.061Z,4.78
2018-06-27T15:02:19.500Z,5.42
2018-06-27T15:04:48.907Z,7.90
2018-06-27T15:07:18.232Z,5.00
2018-06-27T15:09:47.598Z,6.47
2018-06-27T15:12:17.054Z,4.22
2018-06-27T15:14:46.302Z,2.70
2018-06-27T15:17:15.643Z,5.37
2018-06-27T15:19:44.898Z,4.50
2018-06-27T15:22:14.290Z,3.58
2018-06-27T15:24:43.557Z,4.53
2018-06-27T15:27:12.828Z,4.87
2018-06-27T15:29:42.164Z,4.08
2018-06-27T15:32:11.799Z,4.33
2018-06-27T15:34:41.153Z,3.70
2018-06-27T15:37:10.656Z,6.90
2018-06-27T15:39:39.909Z,7.78
2018-06-27T15:42:09.876Z,5.65
2018-06-27T15:44:40.250Z,4.47
2018-06-27T15:47:09.592Z,3.17
2018-06-27T15:49:39.452Z,5.40
2018-06-27T15:52:08.809Z,2.85
2018-06-27T15:54:38.104Z,2.47
2018-06-27T15:57:07.456Z,3.08
2018-06-27T15:59:37.068Z,4.62
2018-06-27T16:02:06.392Z,3.52
2018-06-27T16:04:35.746Z,5.30
2018-06-27T16:07:05.155Z,3.85
2018-06-27T16:09:34.440Z,3.58
2018-06-27T16:12:04.025Z,2.50
2018-06-27T16:14:33.321Z,3.72
2018-06-27T16:17:03.478Z,5.35
2018-06-27T16:19:32.733Z,4.70
2018-06-27T16:22:02.736Z,2.95
2018-06-27T16:24:31.667Z,3.75
2018-06-27T16:27:00.858Z,3.00
2018-06-27T16:29:30.125Z,3.05
2018-06-27T16:31:59.437Z,7.03
2018-06-27T16:34:28.672Z,5.28
2018-06-27T16:36:57.992Z,4.47
2018-06-27T16:39:27.270Z,3.87
2018-06-27T16:41:56.593Z,3.35
2018-06-27T16:44:25.799Z,2.60
2018-06-27T16:46:55.137Z,6.50
2018-06-27T16:49:24.606Z,2.92
2018-06-27T16:51:54.057Z,2.10
2018-06-27T16:54:23.565Z,3.60
2018-06-27T16:56:53.000Z,3.00
2018-06-27T16:59:22.372Z,3.55
2018-06-27T17:01:51.640Z,2.30
2018-06-27T17:04:20.991Z,1.82
2018-06-27T17:06:50.291Z,3.85
2018-06-27T17:09:19.567Z,1.60
2018-06-27T17:11:48.862Z,1.70
2018-06-27T17:14:18.179Z,4.00
2018-06-27T17:16:48.156Z,3.30
2018-06-27T17:19:17.078Z,3.85
2018-06-27T17:21:46.184Z,1.62
2018-06-27T17:24:15.487Z,1.80
2018-06-27T17:26:44.765Z,2.67
2018-06-27T17:29:14.417Z,1.40
2018-06-27T17:31:43.660Z,1.95
2018-06-27T17:34:12.531Z,3.95
2018-06-27T17:36:41.777Z,2.17
2018-06-27T17:39:11.099Z,2.70
2018-06-27T17:41:40.497Z,2.55
2018-06-27T17:44:09.868Z,3.08
2018-06-27T17:46:39.196Z,2.30
2018-06-27T17:49:08.570Z,4.97
2018-06-27T17:51:38.211Z,2.45
2018-06-27T17:54:07.922Z,2.67
2018-06-27T17:56:37.332Z,2.33
2018-06-27T17:59:10.233Z,1.50
2018-06-27T18:01:40.325Z,3.62
2018-06-27T18:04:09.687Z,1.57
2018-06-27T18:06:39.180Z,1.40
2018-06-27T18:09:09.692Z,1.72
2018-06-27T18:11:39.576Z,2.77
2018-06-27T18:14:09.366Z,2.80
2018-06-27T18:16:38.647Z,2.37
2018-06-27T18:19:08.164Z,2.17
2018-06-27T18:21:37.740Z,1.75
2018-06-27T18:24:07.308Z,1.80
2018-06-27T18:26:36.785Z,2.30
2018-06-27T18:29:06.004Z,2.55
2018-06-27T18:31:35.992Z,1.57
2018-06-27T18:34:05.939Z,1.42
2018-06-27T18:36:35.288Z,2.22
2018-06-27T18:39:06.956Z,1.60
2018-06-27T18:41:36.377Z,1.87
2018-06-27T18:44:05.757Z,1.80
2018-06-27T18:46:36.045Z,3.10
2018-06-27T18:49:05.703Z,1.57
2018-06-27T18:51:35.252Z,1.32
2018-06-27T18:54:04.679Z,2.77
2018-06-27T18:56:34.097Z,2.10
2018-06-27T18:59:03.549Z,2.70
2018-06-27T19:01:33.411Z,2.22
2018-06-27T19:04:08.133Z,2.62
2018-06-27T19:06:37.590Z,2.08
2018-06-27T19:09:09.478Z,3.08
2018-06-27T19:11:38.913Z,2.47
2018-06-27T19:14:09.064Z,3.08
2018-06-27T19:16:38.799Z,2.12
2018-06-27T19:19:08.019Z,1.80
2018-06-27T19:21:37.385Z,2.90
2018-06-27T19:24:07.230Z,1.60
2018-06-27T19:26:37.603Z,3.00
2018-06-27T19:29:06.977Z,3.25
2018-06-27T19:31:36.313Z,1.87
2018-06-27T19:34:05.672Z,2.22
2018-06-27T19:36:35.024Z,2.92
2018-06-27T19:39:07.072Z,2.90
2018-06-27T19:41:36.474Z,5.28
2018-06-27T19:44:05.852Z,2.95
2018-06-27T19:46:35.128Z,2.12
2018-06-27T19:49:04.566Z,2.60
2018-06-27T19:51:34.102Z,3.00
2018-06-27T19:54:03.012Z,2.10
2018-06-27T19:56:32.197Z,1.87
2018-06-27T19:59:01.750Z,3.27
2018-06-27T20:01:31.101Z,1.92
2018-06-27T20:04:00.540Z,4.20
2018-06-27T20:06:29.960Z,2.58
2018-06-27T20:08:59.281Z,1.77
2018-06-27T20:11:29.405Z,2.17
2018-06-27T20:13:59.045Z,2.85
2018-06-27T20:16:28.192Z,2.77
2018-06-27T20:18:57.495Z,2.20
2018-06-27T20:21:27.630Z,2.25
2018-06-27T20:24:00.735Z,3.58
2018-06-27T20:26:30.007Z,2.85
2018-06-27T20:28:59.299Z,1.92
2018-06-27T20:31:28.706Z,3.55
2018-06-27T20:33:58.053Z,5.22
2018-06-27T20:36:27.364Z,2.17
2018-06-27T20:38:56.689Z,2.15
2018-06-27T20:41:26.006Z,4.03
2018-06-27T20:43:55.746Z,4.42
2018-06-27T20:46:25.060Z,4.08
2018-06-27T20:48:54.495Z,2.65
2018-06-27T20:51:23.871Z,2.80
2018-06-27T20:53:53.132Z,2.27
2018-06-27T20:56:22.712Z,2.80
2018-06-27T20:58:52.096Z,3.85
2018-06-27T21:01:21.436Z,2.47
2018-06-27T21:03:51.467Z,3.72
2018-06-27T21:06:20.759Z,2.37
2018-06-27T21:08:50.037Z,4.35
2018-06-27T21:11:19.410Z,2.40
2018-06-27T21:13:48.783Z,3.80
2018-06-27T21:16:18.177Z,3.98
2018-06-27T21:18:47.468Z,2.52
2018-06-27T21:21:16.770Z,3.87
2018-06-27T21:23:46.144Z,3.25
2018-06-27T21:26:15.521Z,5.33
2018-06-27T21:28:45.398Z,2.30
2018-06-27T21:31:15.297Z,2.12
2018-06-27T21:33:45.365Z,3.67
2018-06-27T21:36:14.680Z,3.60
2018-06-27T21:38:44.533Z,2.30
2018-06-27T21:41:13.912Z,2.33
2018-06-27T21:43:43.578Z,2.70
2018-06-27T21:46:12.912Z,3.15
2018-06-27T21:48:42.267Z,2.83
2018-06-27T21:51:11.567Z,3.22
2018-06-27T21:53:40.871Z,3.00
2018-06-27T21:56:10.384Z,3.65
2018-06-27T21:58:39.627Z,2.72
2018-06-27T22:01:08.946Z,4.22
2018-06-27T22:03:38.302Z,2.77
2018-06-27T22:06:07.635Z,3.33
2018-06-27T22:08:37.527Z,3.17
2018-06-27T22:11:06.877Z,3.83
2018-06-27T22:13:36.217Z,3.60
2018-06-27T22:16:05.287Z,3.10
2018-06-27T22:18:34.978Z,2.80
2018-06-27T22:21:04.947Z,4.70
2018-06-27T22:23:34.783Z,4.00
2018-06-27T22:26:04.203Z,3.62
2018-06-27T22:28:33.572Z,2.77
2018-06-27T22:31:02.821Z,2.55
2018-06-27T22:33:32.149Z,3.02
2018-06-27T22:36:01.428Z,2.40
2018-06-27T22:38:30.670Z,2.90
2018-06-27T22:40:59.948Z,4.00
2018-06-27T22:43:29.364Z,4.28
2018-06-27T22:45:58.696Z,4.25
2018-06-27T22:48:28.004Z,5.22
2018-06-27T22:50:57.342Z,3.80
2018-06-27T22:53:26.949Z,4.10
2018-06-27T22:55:56.516Z,3.05
2018-06-27T22:58:25.891Z,2.85
2018-06-27T23:00:55.800Z,3.35
2018-06-27T23:03:25.052Z,4.25
2018-06-27T23:05:55.691Z,3.87
2018-06-27T23:08:24.940Z,2.50
2018-06-27T23:10:54.286Z,4.25
2018-06-27T23:13:23.604Z,3.10
2018-06-27T23:15:52.939Z,3.17
2018-06-27T23:18:22.239Z,3.27
2018-06-27T23:20:51.502Z,3.17
2018-06-27T23:23:20.735Z,2.92
2018-06-27T23:25:50.049Z,3.65
2018-06-27T23:28:19.294Z,4.55
2018-06-27T23:30:48.545Z,2.80
2018-06-27T23:33:17.829Z,3.08
2018-06-27T23:35:47.215Z,2.75
2018-06-27T23:38:16.518Z,3.33
2018-06-27T23:40:45.824Z,4.17
2018-06-27T23:43:15.124Z,2.60
2018-06-27T23:45:44.915Z,5.78
2018-06-27T23:48:14.257Z,5.53
2018-06-27T23:50:43.556Z,3.15
2018-06-27T23:53:12.836Z,3.67
2018-06-27T23:55:42.182Z,3.62
2018-06-27T23:58:11.473Z,2.75
